Time;durP1;ratioP1;P1;durP2;ratioP2;P2;SDS_P1;SDS_P2;PMS_P1;PMS_P2;Temp;Humidity;BMP_temperature;BMP_pressure;BME280_temperature;BME280_humidity;BME280_pressure;Samples;Min_cycle;Max_cycle;Signal;HPM_P1;HPM_P2
2023/04/21 00:00:59;;;;;;;;;;;;;;;28.96;27.54;100257.09;5096025;28;1061;-30
2023/04/21 00:03:25;;;;;;;;;;;;;;;29.80;26.29;100257.66;5099171;28;1125;-30
2023/04/21 00:05:50;;;;;;;;;;;;;;;29.56;26.24;100252.69;5096364;28;1117;-29
2023/04/21 00:08:16;;;;;;;;;;;;;;;29.03;26.58;100253.59;5095759;28;1154;-33
2023/04/21 00:10:42;;;;;;;;;;;;;;;29.13;27.31;100243.16;5096301;28;1126;-34
2023/04/21 00:13:07;;;;;;;;;;;;;;;29.75;26.07;100247.47;5096054;28;1917;-33
2023/04/21 00:15:33;;;;;;;;;;;;;;;29.72;26.26;100245.19;5099774;28;1130;-31
2023/04/21 00:17:58;;;;;;;;;;;;;;;29.16;26.19;100237.31;5102506;28;1121;-29
2023/04/21 00:20:25;;;;;;;;;;;;;;;29.01;27.46;100234.84;5095646;28;1114;-31
2023/04/21 00:22:54;;;;;;;;;;;;;;;29.69;26.60;100241.03;5095885;28;1130;-31
2023/04/21 00:25:20;;;;;;;;;;;;;;;29.69;26.40;100242.91;5096451;28;1153;-33
2023/04/21 00:27:46;;;;;;;;;;;;;;;29.05;26.57;100230.69;5099268;28;1473;-29
2023/04/21 00:30:11;;;;;;;;;;;;;;;28.92;27.53;100238.78;5084214;28;1146;-30
2023/04/21 00:32:37;;;;;;;;;;;;;;;29.82;26.23;100248.28;5102686;28;1918;-31
2023/04/21 00:35:03;;;;;;;;;;;;;;;29.60;26.18;100244.16;5096040;28;1020;-34
2023/04/21 00:37:28;;;;;;;;;;;;;;;29.00;26.64;100237.75;5096067;28;1114;-30
2023/04/21 00:39:54;;;;;;;;;;;;;;;29.11;27.38;100234.44;5100884;28;1117;-32
2023/04/21 00:42:20;;;;;;;;;;;;;;;29.85;26.12;100230.75;5102795;28;1147;-31
2023/04/21 00:44:45;;;;;;;;;;;;;;;29.37;26.33;100232.75;5077892;28;1011;-30
2023/04/21 00:47:11;;;;;;;;;;;;;;;28.90;26.63;100221.91;5077783;28;1123;-30
2023/04/21 00:49:36;;;;;;;;;;;;;;;29.45;26.57;100227.09;5077634;28;1179;-33
2023/04/21 00:52:05;;;;;;;;;;;;;;;29.82;26.14;100229.31;5082362;28;1133;-33
2023/04/21 00:54:31;;;;;;;;;;;;;;;29.29;26.28;100224.84;5084308;28;1906;-32
2023/04/21 00:57:00;;;;;;;;;;;;;;;28.97;26.53;100217.34;5115937;28;1157;-30
2023/04/21 00:59:26;;;;;;;;;;;;;;;29.56;26.73;100219.38;5077799;28;1451;-30
2023/04/21 01:01:52;;;;;;;;;;;;;;;29.84;26.20;100220.13;5095593;28;1022;-30
2023/04/21 01:04:19;;;;;;;;;;;;;;;29.35;26.22;100215.84;5102662;28;1118;-28
2023/04/21 01:06:45;;;;;;;;;;;;;;;28.95;26.87;100213.97;5101825;28;1161;-29
2023/04/21 01:09:13;;;;;;;;;;;;;;;29.45;26.68;100218.13;5098015;28;1083;-31
2023/04/21 01:11:39;;;;;;;;;;;;;;;29.92;26.04;100209.03;5099254;28;1030;-30
2023/04/21 01:14:06;;;;;;;;;;;;;;;29.30;26.26;100204.81;5080902;28;1986;-30
2023/04/21 01:16:32;;;;;;;;;;;;;;;28.79;27.09;100213.38;5106069;28;1089;-30
2023/04/21 01:18:58;;;;;;;;;;;;;;;29.67;26.44;100204.34;5080972;28;1374;-31
2023/04/21 01:21:24;;;;;;;;;;;;;;;29.93;25.87;100206.09;5080594;28;1133;-35
2023/04/21 01:23:49;;;;;;;;;;;;;;;29.24;26.08;100197.53;5081185;28;1213;-29
2023/04/21 01:26:17;;;;;;;;;;;;;;;28.83;27.15;100189.41;5080965;28;1079;-30
2023/04/21 01:28:42;;;;;;;;;;;;;;;29.70;26.35;100191.19;5099802;28;836;-29
2023/04/21 01:31:08;;;;;;;;;;;;;;;29.84;26.31;100193.84;5080835;28;1233;-32
2023/04/21 01:33:36;;;;;;;;;;;;;;;29.28;26.26;100190.66;5080385;28;1972;-30
2023/04/21 01:36:02;;;;;;;;;;;;;;;28.89;26.89;100185.03;5080564;28;1083;-29
2023/04/21 01:38:27;;;;;;;;;;;;;;;29.70;26.33;100188.47;5080657;28;1228;-32
2023/04/21 01:40:53;;;;;;;;;;;;;;;29.88;26.10;100192.34;5088548;28;1285;-30
2023/04/21 01:43:20;;;;;;;;;;;;;;;29.26;26.18;100190.03;5098655;28;1059;-31
2023/04/21 01:45:46;;;;;;;;;;;;;;;28.79;27.25;100178.19;5098663;28;1006;-31
2023/04/21 01:48:11;;;;;;;;;;;;;;;29.65;26.40;100187.44;5098769;28;1098;-29
2023/04/21 01:50:38;;;;;;;;;;;;;;;29.89;26.11;100183.19;5080344;28;1201;-33
2023/04/21 01:53:04;;;;;;;;;;;;;;;29.27;26.40;100187.13;5100439;28;1975;-34
2023/04/21 01:55:29;;;;;;;;;;;;;;;28.83;26.80;100175.88;5098602;28;1198;-30
2023/04/21 01:57:58;;;;;;;;;;;;;;;29.52;26.60;100169.31;5080043;28;1380;-31
2023/04/21 02:00:24;;;;;;;;;;;;;;;29.79;26.41;100178.25;5080282;28;1510;-28
2023/04/21 02:02:50;;;;;;;;;;;;;;;29.39;26.20;100175.63;5098386;28;1166;-31
2023/04/21 02:05:15;;;;;;;;;;;;;;;28.85;26.67;100184.63;5107723;28;1069;-29
2023/04/21 02:07:41;;;;;;;;;;;;;;;29.55;26.64;100175.16;5098298;28;1150;-31
2023/04/21 02:10:07;;;;;;;;;;;;;;;29.80;26.23;100181.75;5079799;28;1178;-30
2023/04/21 02:12:33;;;;;;;;;;;;;;;29.48;26.12;100173.53;5079927;28;1902;-29
2023/04/21 02:14:59;;;;;;;;;;;;;;;28.87;26.80;100173.59;5097824;28;1078;-29
2023/04/21 02:17:25;;;;;;;;;;;;;;;29.44;26.68;100171.25;5083030;28;1235;-30
2023/04/21 02:19:54;;;;;;;;;;;;;;;29.74;26.40;100169.91;5079551;28;1369;-33
2023/04/21 02:22:21;;;;;;;;;;;;;;;29.42;26.25;100167.91;5097999;28;1194;-31
2023/04/21 02:24:46;;;;;;;;;;;;;;;28.85;26.86;100166.53;5079610;28;1157;-31
2023/04/21 02:27:12;;;;;;;;;;;;;;;29.50;26.73;100174.13;5098066;28;1138;-31
2023/04/21 02:29:38;;;;;;;;;;;;;;;29.82;26.25;100166.13;5097872;28;1146;-29
2023/04/21 02:32:06;;;;;;;;;;;;;;;29.43;26.30;100169.56;5079600;28;1416;-30
2023/04/21 02:34:32;;;;;;;;;;;;;;;28.95;26.66;100162.53;5079108;28;1913;-30
2023/04/21 02:36:58;;;;;;;;;;;;;;;29.45;26.85;100158.50;5079538;28;1213;-31
2023/04/21 02:39:24;;;;;;;;;;;;;;;29.90;26.01;100167.75;5079543;28;1258;-29
2023/04/21 02:41:50;;;;;;;;;;;;;;;29.36;26.24;100160.66;5100050;28;928;-28
2023/04/21 02:44:15;;;;;;;;;;;;;;;28.89;26.80;100160.69;5096891;28;1227;-29
2023/04/21 02:46:41;;;;;;;;;;;;;;;29.46;26.99;100155.59;5097500;28;1154;-30
2023/04/21 02:49:07;;;;;;;;;;;;;;;29.74;26.56;100158.22;5079178;28;1235;-30
2023/04/21 02:51:34;;;;;;;;;;;;;;;30.09;25.50;100144.28;5097696;28;1120;-32
2023/04/21 02:54:00;;;;;;;;;;;;;;;27.43;28.45;100139.09;5088969;28;1918;-31
2023/04/21 02:56:25;;;;;;;;;;;;;;;26.85;28.05;100142.88;5079182;28;1117;-32
2023/04/21 02:58:51;;;;;;;;;;;;;;;28.23;26.53;100151.25;5097626;28;1122;-34
2023/04/21 03:01:16;;;;;;;;;;;;;;;25.78;28.50;100144.28;5097610;28;1110;-31
2023/04/21 03:03:42;;;;;;;;;;;;;;;25.47;29.41;100148.00;5097381;28;1203;-31
2023/04/21 03:06:09;;;;;;;;;;;;;;;27.60;25.97;100142.31;5082628;28;1142;-34
2023/04/21 03:08:35;;;;;;;;;;;;;;;27.99;26.18;100147.25;5097410;28;1046;-34
2023/04/21 03:11:01;;;;;;;;;;;;;;;25.90;27.93;100140.09;5097136;28;1090;-31
2023/04/21 03:13:26;;;;;;;;;;;;;;;25.33;29.05;100146.97;5078707;28;1914;-29
2023/04/21 03:15:52;;;;;;;;;;;;;;;26.82;27.61;100145.94;5097039;28;1129;-35
2023/04/21 03:18:17;;;;;;;;;;;;;;;25.66;28.18;100141.22;5089610;28;1274;-30
2023/04/21 03:20:43;;;;;;;;;;;;;;;24.66;29.89;100150.28;5078744;28;1355;-31
2023/04/21 03:23:08;;;;;;;;;;;;;;;26.41;28.09;100153.69;5096981;28;1217;-32
2023/04/21 03:25:34;;;;;;;;;;;;;;;26.87;26.37;100159.69;5096965;28;1149;-30
2023/04/21 03:28:01;;;;;;;;;;;;;;;25.57;27.82;100162.03;5078169;28;1265;-34
2023/04/21 03:30:26;;;;;;;;;;;;;;;24.51;29.50;100159.16;5102391;28;1321;-29
2023/04/21 03:32:54;;;;;;;;;;;;;;;25.39;29.19;100157.03;5096450;28;1983;-29
2023/04/21 03:35:20;;;;;;;;;;;;;;;26.97;26.81;100154.81;5078422;28;1110;-29
2023/04/21 03:37:45;;;;;;;;;;;;;;;25.88;27.50;100149.38;5096540;28;1185;-32
2023/04/21 03:40:11;;;;;;;;;;;;;;;24.85;28.85;100153.50;5078254;28;1066;-30
2023/04/21 03:42:36;;;;;;;;;;;;;;;26.00;27.47;100144.34;5096956;28;982;-34
2023/04/21 03:45:02;;;;;;;;;;;;;;;26.00;27.45;100147.88;5096634;28;1047;-32
2023/04/21 03:47:31;;;;;;;;;;;;;;;24.77;29.06;100149.88;5078266;28;1299;-29
2023/04/21 03:49:57;;;;;;;;;;;;;;;24.78;29.83;100148.84;5096291;28;1034;-30
2023/04/21 03:52:22;;;;;;;;;;;;;;;25.32;28.61;100156.94;5096588;28;1905;-32
2023/04/21 03:54:48;;;;;;;;;;;;;;;25.23;29.03;100153.50;5104144;28;906;-30
2023/04/21 03:57:14;;;;;;;;;;;;;;;24.14;30.83;100155.34;5096016;28;1124;-31
2023/04/21 03:59:39;;;;;;;;;;;;;;;23.31;32.03;100151.97;5096360;28;1034;-33
2023/04/21 04:02:05;;;;;;;;;;;;;;;23.76;30.41;100158.72;5095937;28;1078;-34
2023/04/21 04:04:30;;;;;;;;;;;;;;;22.81;31.66;100159.25;5096560;28;1194;-30
2023/04/21 04:06:56;;;;;;;;;;;;;;;21.53;34.04;100162.75;5097207;28;886;-30
2023/04/21 04:09:22;;;;;;;;;;;;;;;21.44;36.70;100167.22;5096057;28;1141;-29
2023/04/21 04:11:47;;;;;;;;;;;;;;;22.72;32.72;100164.63;5096568;28;1054;-33
2023/04/21 04:14:13;;;;;;;;;;;;;;;23.70;31.15;100181.75;5096022;28;1906;-31
2023/04/21 04:16:40;;;;;;;;;;;;;;;24.64;29.26;100180.06;5096205;28;1162;-33
2023/04/21 04:19:05;;;;;;;;;;;;;;;27.00;26.42;100180.56;5104204;28;881;-30
2023/04/21 04:21:31;;;;;;;;;;;;;;;27.42;25.80;100187.91;5095920;28;1085;-39
2023/04/21 04:23:57;;;;;;;;;;;;;;;27.65;25.16;100192.19;5096216;28;1046;-36
2023/04/21 04:26:24;;;;;;;;;;;;;;;27.89;24.94;100196.28;5098027;28;1228;-30
2023/04/21 04:28:49;;;;;;;;;;;;;;;28.23;25.02;100193.69;5105215;28;1403;-36
2023/04/21 04:31:16;;;;;;;;;;;;;;;28.46;24.81;100198.75;5096360;28;1361;-36
2023/04/21 04:33:41;;;;;;;;;;;;;;;28.66;24.60;100199.84;5099461;28;1959;-39
2023/04/21 04:36:07;;;;;;;;;;;;;;;28.76;24.67;100197.53;5095953;28;1181;-36
2023/04/21 04:38:34;;;;;;;;;;;;;;;28.83;24.72;100200.22;5095678;28;1047;-34
2023/04/21 04:41:01;;;;;;;;;;;;;;;28.45;25.18;100201.66;5101178;28;1268;-33
2023/04/21 04:43:26;;;;;;;;;;;;;;;27.17;26.99;100199.19;5080407;28;1339;-32
2023/04/21 04:45:52;;;;;;;;;;;;;;;28.33;25.56;100196.88;5110004;28;1189;-32
2023/04/21 04:48:18;;;;;;;;;;;;;;;28.60;25.24;100199.63;5100029;28;1387;-33
2023/04/21 04:50:43;;;;;;;;;;;;;;;28.76;25.22;100204.84;5100702;28;1014;-38
2023/04/21 04:53:09;;;;;;;;;;;;;;;28.99;24.91;100211.72;5090312;28;1914;-31
2023/04/21 04:55:35;;;;;;;;;;;;;;;29.14;24.88;100200.69;5103973;28;1166;-34
2023/04/21 04:58:01;;;;;;;;;;;;;;;28.23;25.72;100205.34;5099532;28;1138;-34
2023/04/21 05:00:27;;;;;;;;;;;;;;;27.40;26.69;100204.31;5099405;28;1101;-35
2023/04/21 05:02:53;;;;;;;;;;;;;;;28.82;25.43;100209.41;5099612;28;1141;-34
2023/04/21 05:05:20;;;;;;;;;;;;;;;29.00;25.22;100208.81;5098601;28;1151;-32
2023/04/21 05:07:46;;;;;;;;;;;;;;;29.02;25.07;100209.44;5099721;28;1030;-33
2023/04/21 05:10:11;;;;;;;;;;;;;;;29.14;24.80;100212.34;5098894;28;1058;-38
2023/04/21 05:12:37;;;;;;;;;;;;;;;29.29;24.74;100212.13;5098861;28;1906;-33
2023/04/21 05:15:03;;;;;;;;;;;;;;;28.26;25.68;100198.69;5099382;28;1226;-33
2023/04/21 05:17:29;;;;;;;;;;;;;;;27.70;26.85;100204.09;5099012;28;933;-33
2023/04/21 05:19:55;;;;;;;;;;;;;;;29.64;24.51;100202.91;5098615;28;1057;-33
2023/04/21 05:22:21;;;;;;;;;;;;;;;27.82;26.59;100208.94;5102324;28;1134;-35
2023/04/21 05:24:47;;;;;;;;;;;;;;;27.45;27.03;100206.41;5098728;28;1216;-35
2023/04/21 05:27:12;;;;;;;;;;;;;;;29.52;24.63;100212.69;5099376;28;1045;-35
2023/04/21 05:29:38;;;;;;;;;;;;;;;30.00;23.98;100210.66;5104633;28;1285;-32
2023/04/21 05:32:04;;;;;;;;;;;;;;;29.61;24.04;100207.91;5100165;28;1216;-31
2023/04/21 05:34:30;;;;;;;;;;;;;;;27.75;26.45;100203.50;5100210;28;1906;-35
2023/04/21 05:36:55;;;;;;;;;;;;;;;28.76;25.56;100202.13;5110779;28;1229;-31
2023/04/21 05:39:21;;;;;;;;;;;;;;;28.75;25.08;100205.84;5098839;28;1062;-34
2023/04/21 05:41:46;;;;;;;;;;;;;;;27.58;26.68;100197.56;5109756;28;1158;-37
2023/04/21 05:44:12;;;;;;;;;;;;;;;28.68;25.51;100192.31;5098664;28;1083;-35
2023/04/21 05:46:38;;;;;;;;;;;;;;;29.74;24.23;100204.31;5098391;28;1154;-32
2023/04/21 05:49:03;;;;;;;;;;;;;;;30.03;23.79;100204.84;5104320;28;1179;-37
2023/04/21 05:51:29;;;;;;;;;;;;;;;28.69;24.95;100200.25;5101141;28;1167;-34
2023/04/21 05:53:54;;;;;;;;;;;;;;;27.69;26.66;100198.91;5107009;28;1909;-31
2023/04/21 05:56:21;;;;;;;;;;;;;;;28.96;25.31;100200.25;5102918;28;1265;-33
2023/04/21 05:58:46;;;;;;;;;;;;;;;28.03;26.28;100196.34;5098084;28;1134;-31
2023/04/21 06:01:12;;;;;;;;;;;;;;;27.77;27.15;100193.34;5098103;28;1061;-35
2023/04/21 06:03:37;;;;;;;;;;;;;;;29.26;25.09;100198.16;5098232;28;1225;-35
2023/04/21 06:06:03;;;;;;;;;;;;;;;30.06;23.97;100207.91;5100441;28;839;-34
2023/04/21 06:08:29;;;;;;;;;;;;;;;29.29;24.48;100195.88;5098252;28;1054;-32
2023/04/21 06:10:54;;;;;;;;;;;;;;;27.71;26.80;100203.06;5097477;28;1018;-34
2023/04/21 06:13:20;;;;;;;;;;;;;;;28.68;25.87;100212.09;5098073;28;1914;-32
2023/04/21 06:15:45;;;;;;;;;;;;;;;28.34;25.89;100213.94;5097996;28;1123;-33
2023/04/21 06:18:11;;;;;;;;;;;;;;;27.26;27.83;100222.28;5107565;28;1458;-36
2023/04/21 06:20:36;;;;;;;;;;;;;;;28.58;26.30;100233.31;5098298;28;1109;-37
2023/04/21 06:23:02;;;;;;;;;;;;;;;29.75;24.49;100246.63;5100492;28;1110;-33
2023/04/21 06:25:28;;;;;;;;;;;;;;;28.92;24.02;100245.03;5098692;28;1129;-30
2023/04/21 06:27:55;;;;;;;;;;;;;;;24.75;28.95;100251.44;5097751;28;1027;-35
2023/04/21 06:30:20;;;;;;;;;;;;;;;27.03;27.26;100247.66;5101925;28;1159;-32
2023/04/21 06:32:47;;;;;;;;;;;;;;;28.34;25.25;100247.22;5096894;28;1906;-32
2023/04/21 06:35:13;;;;;;;;;;;;;;;26.94;26.69;100254.22;5097808;28;1197;-34
2023/04/21 06:37:39;;;;;;;;;;;;;;;27.13;26.78;100255.44;5097624;28;1137;-33
2023/04/21 06:40:05;;;;;;;;;;;;;;;28.34;25.33;100260.72;5079443;28;1058;-30
2023/04/21 06:42:31;;;;;;;;;;;;;;;28.48;24.54;100256.19;5109041;28;1138;-33
2023/04/21 06:44:56;;;;;;;;;;;;;;;27.14;25.71;100259.81;5097423;28;1445;-31
2023/04/21 06:47:22;;;;;;;;;;;;;;;26.75;26.28;100256.53;5097122;28;1050;-31
2023/04/21 06:49:47;;;;;;;;;;;;;;;28.61;24.32;100268.09;5097314;28;1170;-40
2023/04/21 06:52:13;;;;;;;;;;;;;;;29.24;23.43;100266.09;5104100;28;1454;-38
2023/04/21 06:54:38;;;;;;;;;;;;;;;28.71;24.11;100265.81;5109265;28;1910;-37
2023/04/21 06:57:04;;;;;;;;;;;;;;;27.30;26.50;100263.25;5103338;28;1233;-37
2023/04/21 06:59:30;;;;;;;;;;;;;;;28.22;25.34;100263.19;5097910;28;1014;-39
2023/04/21 07:01:55;;;;;;;;;;;;;;;29.32;23.92;100267.75;5096485;28;1194;-40
2023/04/21 07:04:21;;;;;;;;;;;;;;;29.64;23.34;100272.53;5097089;28;1109;-38
2023/04/21 07:06:47;;;;;;;;;;;;;;;27.49;26.14;100267.13;5107224;28;1106;-39
2023/04/21 07:09:12;;;;;;;;;;;;;;;27.42;26.38;100271.66;5096548;28;1177;-38
2023/04/21 07:11:38;;;;;;;;;;;;;;;29.17;24.31;100274.22;5097100;28;1139;-39
2023/04/21 07:14:05;;;;;;;;;;;;;;;28.84;24.27;100264.19;5097322;28;1909;-39
2023/04/21 07:16:31;;;;;;;;;;;;;;;27.32;26.75;100251.22;5096729;28;1081;-39
2023/04/21 07:18:56;;;;;;;;;;;;;;;28.24;25.46;100263.78;5100437;28;857;-39
2023/04/21 07:21:22;;;;;;;;;;;;;;;29.40;24.11;100258.56;5097426;28;1082;-38
2023/04/21 07:23:47;;;;;;;;;;;;;;;29.67;23.67;100253.97;5096970;28;1054;-37
2023/04/21 07:26:13;;;;;;;;;;;;;;;28.18;25.25;100250.25;5096555;28;1022;-38
2023/04/21 07:28:39;;;;;;;;;;;;;;;27.30;26.61;100252.44;5096708;28;1063;-37
2023/04/21 07:31:05;;;;;;;;;;;;;;;28.65;24.91;100255.81;5096438;28;1088;-30
2023/04/21 07:33:30;;;;;;;;;;;;;;;27.23;24.82;100255.94;5096202;28;2028;-33
2023/04/21 07:35:57;;;;;;;;;;;;;;;25.86;26.74;100260.03;5096919;28;1163;-31
2023/04/21 07:38:23;;;;;;;;;;;;;;;27.19;26.26;100243.88;5097092;28;1185;-34
2023/04/21 07:40:49;;;;;;;;;;;;;;;28.16;24.84;100249.63;5096887;28;1196;-34
2023/04/21 07:43:14;;;;;;;;;;;;;;;27.83;24.42;100248.44;5104094;28;848;-33
2023/04/21 07:45:40;;;;;;;;;;;;;;;25.97;26.20;100250.66;5096628;28;1046;-31
2023/04/21 07:48:06;;;;;;;;;;;;;;;26.21;26.73;100250.53;5096865;28;1385;-35
2023/04/21 07:50:32;;;;;;;;;;;;;;;26.79;25.39;100238.94;5096135;28;1503;-33
2023/04/21 07:52:57;;;;;;;;;;;;;;;26.11;25.84;100256.22;5096284;28;2059;-34
2023/04/21 07:55:23;;;;;;;;;;;;;;;25.94;26.25;100245.66;5109711;28;1110;-33
2023/04/21 07:57:49;;;;;;;;;;;;;;;27.83;24.55;100243.03;5097055;28;1142;-34
2023/04/21 08:00:15;;;;;;;;;;;;;;;28.47;24.17;100254.53;5096764;28;1058;-32
2023/04/21 08:02:40;;;;;;;;;;;;;;;28.22;22.90;100238.84;5096722;28;1217;-34
2023/04/21 08:05:06;;;;;;;;;;;;;;;26.16;25.73;100243.00;5096310;28;1081;-35
2023/04/21 08:07:31;;;;;;;;;;;;;;;26.57;26.17;100246.19;5096553;28;904;-31
2023/04/21 08:09:57;;;;;;;;;;;;;;;25.85;25.64;100253.00;5096899;28;1076;-32
2023/04/21 08:12:23;;;;;;;;;;;;;;;25.83;25.43;100257.72;5099293;28;1268;-32
2023/04/21 08:14:48;;;;;;;;;;;;;;;27.79;24.85;100266.94;5096438;28;1902;-35
2023/04/21 08:17:14;;;;;;;;;;;;;;;28.34;23.56;100274.25;5097572;28;1070;-30
2023/04/21 08:19:40;;;;;;;;;;;;;;;28.50;23.72;100269.53;5103323;28;891;-34
2023/04/21 08:22:05;;;;;;;;;;;;;;;28.60;23.11;100275.38;5104331;28;1174;-36
2023/04/21 08:24:31;;;;;;;;;;;;;;;28.66;22.29;100273.72;5100243;28;991;-33
2023/04/21 08:26:56;;;;;;;;;;;;;;;28.71;22.53;100279.34;5100541;28;1464;-36
2023/04/21 08:29:22;;;;;;;;;;;;;;;26.99;23.32;100266.09;5100534;28;1078;-36
2023/04/21 08:31:47;;;;;;;;;;;;;;;26.49;24.40;100266.03;5100524;28;1083;-35
2023/04/21 08:34:13;;;;;;;;;;;;;;;26.37;23.92;100265.69;5104849;28;1972;-33
2023/04/21 08:36:40;;;;;;;;;;;;;;;25.92;24.75;100266.56;5100528;28;1304;-35
2023/04/21 08:39:05;;;;;;;;;;;;;;;27.77;24.21;100263.59;5100285;28;1295;-34
2023/04/21 08:41:31;;;;;;;;;;;;;;;26.17;24.36;100271.63;5100301;28;1257;-32
2023/04/21 08:43:56;;;;;;;;;;;;;;;26.04;25.27;100266.91;5105626;28;884;-34
2023/04/21 08:46:22;;;;;;;;;;;;;;;28.19;23.43;100268.16;5099961;28;1281;-32
2023/04/21 08:48:47;;;;;;;;;;;;;;;28.52;22.85;100261.19;5089294;28;1258;-35
2023/04/21 08:51:14;;;;;;;;;;;;;;;28.41;22.10;100266.16;5102022;28;1023;-30
2023/04/21 08:53:40;;;;;;;;;;;;;;;26.33;24.45;100264.38;5099954;28;1915;-30
2023/04/21 08:56:05;;;;;;;;;;;;;;;26.74;23.99;100255.69;5116792;28;951;-29
2023/04/21 08:58:31;;;;;;;;;;;;;;;26.15;24.58;100270.97;5101848;28;1170;-32
2023/04/21 09:00:57;;;;;;;;;;;;;;;26.23;25.36;100267.34;5115551;28;1241;-35
2023/04/21 09:03:26;;;;;;;;;;;;;;;28.14;23.35;100267.94;5120764;28;1244;-33
2023/04/21 09:05:58;;;;;;;;;;;;;;;26.49;24.07;100261.44;5119907;28;1272;-37
2023/04/21 09:08:28;;;;;;;;;;;;;;;26.32;24.87;100258.13;5099863;28;1056;-36
2023/04/21 09:10:54;;;;;;;;;;;;;;;28.18;23.45;100264.59;5099759;28;1170;-31
2023/04/21 09:13:19;;;;;;;;;;;;;;;26.51;23.63;100254.00;5099789;28;1972;-31
2023/04/21 09:15:48;;;;;;;;;;;;;;;26.09;24.48;100264.47;5099758;28;1150;-29
2023/04/21 09:18:17;;;;;;;;;;;;;;;27.74;23.98;100248.59;5099887;28;1006;-33
2023/04/21 09:20:43;;;;;;;;;;;;;;;26.47;24.41;100249.19;5099949;28;1102;-34
2023/04/21 09:23:09;;;;;;;;;;;;;;;26.12;24.76;100236.31;5105619;28;1158;-31
2023/04/21 09:25:36;;;;;;;;;;;;;;;28.08;23.42;100246.06;5099564;28;1026;-32
2023/04/21 09:28:02;;;;;;;;;;;;;;;26.90;23.48;100238.41;5098703;28;1118;-31
2023/04/21 09:30:28;;;;;;;;;;;;;;;26.17;24.61;100234.72;5081918;28;1142;-31
2023/04/21 09:32:57;;;;;;;;;;;;;;;27.74;24.28;100237.78;5106128;28;1956;-33
2023/04/21 09:35:26;;;;;;;;;;;;;;;26.44;24.59;100244.19;5098962;28;1106;-30
2023/04/21 09:37:53;;;;;;;;;;;;;;;26.58;25.17;100234.34;5099623;28;1053;-33
2023/04/21 09:40:18;;;;;;;;;;;;;;;28.07;23.17;100240.84;5111876;28;1050;-33
2023/04/21 09:42:44;;;;;;;;;;;;;;;26.55;24.08;100232.03;5101786;28;1170;-34
2023/04/21 09:45:10;;;;;;;;;;;;;;;26.70;25.22;100227.44;5098955;28;1033;-33
2023/04/21 09:47:41;;;;;;;;;;;;;;;27.81;22.62;100237.81;5098825;28;1174;-32
2023/04/21 09:50:07;;;;;;;;;;;;;;;26.80;24.05;100242.44;5098815;28;1193;-34
2023/04/21 09:52:33;;;;;;;;;;;;;;;27.29;24.83;100231.88;5098802;28;1901;-32
2023/04/21 09:55:03;;;;;;;;;;;;;;;28.53;22.94;100239.34;5103254;28;1103;-35
2023/04/21 09:57:29;;;;;;;;;;;;;;;26.99;23.97;100232.88;5085716;28;1570;-32
2023/04/21 09:59:59;;;;;;;;;;;;;;;26.44;24.20;100215.34;5098347;28;1059;-36
2023/04/21 10:02:25;;;;;;;;;;;;;;;27.70;24.03;100224.88;5098521;28;1201;-32
2023/04/21 10:04:50;;;;;;;;;;;;;;;26.27;24.10;100229.03;5099283;28;1015;-35
2023/04/21 10:07:16;;;;;;;;;;;;;;;26.46;25.01;100212.47;5103381;28;1034;-36
2023/04/21 10:09:59;;;;;;;;;;;;;;;27.75;23.58;100227.81;5098933;28;1142;-31
2023/04/21 10:12:25;;;;;;;;;;;;;;;26.58;24.93;100232.50;5098420;28;1154;-29
2023/04/21 10:14:52;;;;;;;;;;;;;;;26.44;25.37;100228.00;5098190;28;1905;-35
2023/04/21 10:17:17;;;;;;;;;;;;;;;27.53;24.14;100230.56;5098325;28;1158;-29
2023/04/21 10:19:47;;;;;;;;;;;;;;;26.20;25.10;100232.66;5106896;28;1034;-32
2023/04/21 10:22:12;;;;;;;;;;;;;;;26.28;25.59;100232.56;5107290;28;1129;-32
2023/04/21 10:24:38;;;;;;;;;;;;;;;27.60;24.17;100231.47;5110006;28;1047;-33
2023/04/21 10:27:04;;;;;;;;;;;;;;;26.69;25.29;100236.56;5100077;28;1038;-33
2023/04/21 10:29:30;;;;;;;;;;;;;;;26.39;25.62;100232.09;5098462;28;1101;-33
2023/04/21 10:31:55;;;;;;;;;;;;;;;27.79;24.55;100236.38;5102749;28;1050;-36
2023/04/21 10:34:33;;;;;;;;;;;;;;;26.58;24.61;100228.97;5098291;28;1898;-31
2023/04/21 10:36:59;;;;;;;;;;;;;;;26.36;25.25;100231.66;5097919;28;1046;-30
2023/04/21 10:39:57;;;;;;;;;;;;;;;27.55;24.44;100222.28;5097593;28;1117;-32
2023/04/21 10:42:23;;;;;;;;;;;;;;;26.53;24.88;100233.06;5048062;28;1345;-31
2023/04/21 10:44:55;;;;;;;;;;;;;;;26.69;25.08;100228.47;5101084;28;1368;-32
2023/04/21 10:47:42;;;;;;;;;;;;;;;27.62;24.19;100218.59;5101186;28;1103;-29
2023/04/21 10:50:11;;;;;;;;;;;;;;;26.48;25.97;100216.63;5097655;28;1186;-30
2023/04/21 10:52:37;;;;;;;;;;;;;;;27.36;24.69;100221.97;5097386;28;1973;-29
2023/04/21 10:55:05;;;;;;;;;;;;;;;28.03;23.55;100220.69;5098160;28;1288;-33
2023/04/21 10:57:32;;;;;;;;;;;;;;;26.76;25.36;100221.25;5109315;28;1295;-31
2023/04/21 10:59:57;;;;;;;;;;;;;;;27.10;25.07;100215.34;5097319;28;1413;-36
2023/04/21 11:02:23;;;;;;;;;;;;;;;27.97;23.93;100227.72;5097551;28;1241;-33
2023/04/21 11:04:54;;;;;;;;;;;;;;;26.96;25.52;100227.88;5100943;28;1122;-32
2023/04/21 11:07:22;;;;;;;;;;;;;;;26.72;25.46;100225.38;5100284;28;1514;-32
2023/04/21 11:09:55;;;;;;;;;;;;;;;27.77;24.00;100228.47;5106064;28;1161;-30
2023/04/21 11:12:21;;;;;;;;;;;;;;;26.84;25.00;100224.84;5097329;28;1204;-31
2023/04/21 11:14:49;;;;;;;;;;;;;;;26.45;26.09;100222.41;5097343;28;1902;-35
2023/04/21 11:17:18;;;;;;;;;;;;;;;27.62;24.31;100236.66;5097264;28;1129;-35
2023/04/21 11:19:48;;;;;;;;;;;;;;;27.63;24.57;100232.91;5102392;28;1216;-34
2023/04/21 11:22:15;;;;;;;;;;;;;;;26.79;25.59;100220.06;5100766;28;1111;-33
2023/04/21 11:24:45;;;;;;;;;;;;;;;27.06;25.08;100212.19;5097976;28;1253;-33
2023/04/21 11:27:11;;;;;;;;;;;;;;;26.91;25.73;100220.34;5096856;28;1066;-33
2023/04/21 11:29:37;;;;;;;;;;;;;;;26.52;26.12;100214.38;5096425;28;1081;-35
2023/04/21 11:32:03;;;;;;;;;;;;;;;27.70;24.32;100211.38;5100315;28;1129;-34
2023/04/21 11:34:29;;;;;;;;;;;;;;;28.34;22.72;100213.94;5078712;28;1980;-33
2023/04/21 11:36:55;;;;;;;;;;;;;;;28.53;22.56;100212.28;5097444;28;1079;-30
2023/04/21 11:39:20;;;;;;;;;;;;;;;28.57;21.84;100202.75;5097425;28;1149;-31
2023/04/21 11:41:46;;;;;;;;;;;;;;;28.25;22.79;100210.53;5096911;28;1114;-33
2023/04/21 11:44:12;;;;;;;;;;;;;;;27.16;25.18;100198.34;5104982;28;1058;-31
2023/04/21 11:46:45;;;;;;;;;;;;;;;26.83;25.09;100209.69;5104465;28;1194;-28
2023/04/21 11:49:11;;;;;;;;;;;;;;;28.03;23.00;100221.50;5096337;28;1045;-32
2023/04/21 11:51:40;;;;;;;;;;;;;;;27.04;24.44;100206.16;5095413;28;1094;-30
2023/04/21 11:54:09;;;;;;;;;;;;;;;26.76;25.70;100202.38;5096653;28;1909;-29
2023/04/21 11:56:35;;;;;;;;;;;;;;;26.68;25.71;100213.28;5097375;28;1241;-30
2023/04/21 11:59:05;;;;;;;;;;;;;;;26.61;25.55;100207.81;5096462;28;1138;-34
2023/04/21 12:01:30;;;;;;;;;;;;;;;26.73;25.83;100216.25;5096646;28;1038;-29
2023/04/21 12:03:56;;;;;;;;;;;;;;;26.72;26.22;100211.03;5097001;28;1098;-34
2023/04/21 12:06:22;;;;;;;;;;;;;;;26.52;25.07;100209.00;5096800;28;1133;-30
2023/04/21 12:08:48;;;;;;;;;;;;;;;26.49;25.81;100225.56;5107948;28;1066;-30
2023/04/21 12:11:15;;;;;;;;;;;;;;;26.38;25.73;100221.50;5111222;28;1105;-33
2023/04/21 12:13:41;;;;;;;;;;;;;;;26.40;25.15;100209.50;5077679;28;1977;-31
2023/04/21 12:16:06;;;;;;;;;;;;;;;26.50;25.61;100216.44;5096214;28;1495;-29
2023/04/21 12:18:32;;;;;;;;;;;;;;;26.66;25.12;100204.53;5096848;28;1157;-30
2023/04/21 12:20:59;;;;;;;;;;;;;;;26.69;25.63;100220.38;5102567;28;1575;-31
2023/04/21 12:23:25;;;;;;;;;;;;;;;26.57;25.16;100213.81;5085361;28;1389;-34
2023/04/21 12:25:51;;;;;;;;;;;;;;;26.57;25.08;100201.16;5097055;28;1031;-33
2023/04/21 12:28:17;;;;;;;;;;;;;;;26.71;24.70;100212.09;5095952;28;1050;-28
2023/04/21 12:30:42;;;;;;;;;;;;;;;26.62;24.44;100208.69;5095805;28;1739;-32
2023/04/21 12:33:08;;;;;;;;;;;;;;;26.89;24.25;100207.03;5108462;28;1909;-28
2023/04/21 12:35:34;;;;;;;;;;;;;;;26.83;24.79;100172.75;5096469;28;1000;-30
2023/04/21 12:38:00;;;;;;;;;;;;;;;26.60;24.87;100198.06;5096091;28;1070;-31
2023/04/21 12:40:26;;;;;;;;;;;;;;;26.69;23.90;100195.25;5096341;28;1210;-31
2023/04/21 12:42:51;;;;;;;;;;;;;;;26.40;23.62;100190.63;5095845;28;1117;-31